createdAt,value
2016-11-08T00:00:04.785Z,1008.87
2016-11-08T00:05:05.099Z,1008.86
2016-11-08T00:10:05.100Z,1008.81
2016-11-08T00:15:04.223Z,1008.81
2016-11-08T00:20:04.704Z,1008.84
2016-11-08T00:25:04.407Z,1008.81
2016-11-08T00:30:05.042Z,1008.76
2016-11-08T00:35:04.896Z,1008.75
2016-11-08T00:40:05.164Z,1008.78
2016-11-08T00:45:04.852Z,1008.76
2016-11-08T00:50:05.339Z,1008.79
2016-11-08T00:55:04.826Z,1008.75
2016-11-08T01:00:04.161Z,1008.75
2016-11-08T01:05:04.514Z,1008.78
2016-11-08T01:10:04.458Z,1008.79
2016-11-08T01:15:04.822Z,1008.79
2016-11-08T01:20:04.333Z,1008.77
2016-11-08T01:25:04.775Z,1008.84
2016-11-08T01:30:05.049Z,1008.83
2016-11-08T01:35:04.405Z,1008.84
2016-11-08T01:40:04.731Z,1008.77
2016-11-08T01:45:04.520Z,1008.71
2016-11-08T01:50:05.005Z,1008.75
2016-11-08T01:55:04.968Z,1008.73
2016-11-08T02:00:04.457Z,1008.71
2016-11-08T02:05:04.791Z,1008.77
2016-11-08T02:10:04.716Z,1008.66
2016-11-08T02:15:05.055Z,1008.66
2016-11-08T02:20:04.657Z,1008.66
2016-11-08T02:25:04.424Z,1008.63
2016-11-08T02:30:05.162Z,1008.62
2016-11-08T02:35:04.243Z,1008.61
2016-11-08T02:40:04.547Z,1008.64
2016-11-08T02:45:05.376Z,1008.61
2016-11-08T02:50:04.185Z,1008.54
2016-11-08T02:55:04.440Z,1008.6
2016-11-08T03:00:05.212Z,1008.6
2016-11-08T03:05:09.868Z,1008.58
2016-11-08T03:10:04.192Z,1008.53
2016-11-08T03:15:04.576Z,1008.54
2016-11-08T03:20:04.324Z,1008.55
2016-11-08T03:25:04.888Z,1008.56
2016-11-08T03:30:04.761Z,1008.63
2016-11-08T03:35:04.826Z,1008.69
2016-11-08T03:40:04.239Z,1008.63
2016-11-08T03:45:04.308Z,1008.59
2016-11-08T03:50:05.066Z,1008.57
2016-11-08T03:55:05.121Z,1008.62
2016-11-08T04:00:04.722Z,1008.59
2016-11-08T04:05:08.224Z,1008.63
2016-11-08T04:10:04.689Z,1008.7
2016-11-08T04:15:04.329Z,1008.67
2016-11-08T04:20:04.245Z,1008.67
2016-11-08T04:25:04.611Z,1008.63
2016-11-08T04:30:05.373Z,1008.71
2016-11-08T04:35:04.242Z,1008.72
2016-11-08T04:40:04.829Z,1008.75
2016-11-08T04:45:04.525Z,1008.73
2016-11-08T04:50:04.438Z,1008.71
2016-11-08T04:55:04.203Z,1008.76
2016-11-08T05:00:04.117Z,1008.77
2016-11-08T05:05:04.816Z,1008.82
2016-11-08T05:10:04.656Z,1008.84
2016-11-08T05:15:04.319Z,1008.91
2016-11-08T05:20:04.918Z,1008.87
2016-11-08T05:25:04.229Z,1008.84
2016-11-08T05:30:04.826Z,1008.83
2016-11-08T05:35:05.088Z,1008.81
2016-11-08T05:40:04.181Z,1008.79
2016-11-08T05:45:04.454Z,1008.84
2016-11-08T05:50:05.016Z,1008.81
2016-11-08T05:55:04.385Z,1008.79
2016-11-08T06:00:04.634Z,1008.73
2016-11-08T06:05:04.923Z,1008.77
2016-11-08T06:10:04.544Z,1008.92
2016-11-08T06:15:04.287Z,1008.92
2016-11-08T06:20:04.880Z,1008.98
2016-11-08T06:25:04.689Z,1009.01
2016-11-08T06:30:04.305Z,1009
2016-11-08T06:35:04.486Z,1008.94
2016-11-08T06:40:04.192Z,1009.01
2016-11-08T06:45:04.861Z,1009.04
2016-11-08T06:50:04.423Z,1008.99
2016-11-08T06:55:04.883Z,1009.02
2016-11-08T07:00:04.912Z,1009.03
2016-11-08T07:05:04.790Z,1008.99
2016-11-08T07:10:04.780Z,1008.94
2016-11-08T07:15:04.885Z,1009.07
2016-11-08T07:20:04.586Z,1009.08
2016-11-08T07:25:04.191Z,1009.13
2016-11-08T07:30:04.995Z,1009.16
2016-11-08T07:35:04.579Z,1009.14
2016-11-08T07:40:05.103Z,1009.15
2016-11-08T07:45:04.481Z,1009.3
2016-11-08T07:50:05.038Z,1009.41
2016-11-08T07:55:04.458Z,1009.48
2016-11-08T08:00:05.681Z,1009.49
2016-11-08T08:05:04.568Z,1009.48
2016-11-08T08:10:04.229Z,1009.51
2016-11-08T08:15:04.559Z,1009.51
2016-11-08T08:20:05.012Z,1009.51
2016-11-08T08:25:04.875Z,1009.6
2016-11-08T08:30:04.381Z,1009.62
2016-11-08T08:35:04.370Z,1009.73
2016-11-08T08:40:04.303Z,1009.77
2016-11-08T08:45:04.916Z,1009.79
2016-11-08T08:50:04.565Z,1009.8
2016-11-08T08:55:05.001Z,1009.81
2016-11-08T09:00:04.304Z,1009.81
2016-11-08T09:05:05.017Z,1009.8
2016-11-08T09:10:05.022Z,1009.78
2016-11-08T09:15:05.195Z,1009.82
2016-11-08T09:20:04.566Z,1009.88
2016-11-08T09:25:04.853Z,1009.77
2016-11-08T09:30:05.106Z,1009.73
2016-11-08T09:35:04.420Z,1009.75
2016-11-08T09:40:04.560Z,1009.72
2016-11-08T09:45:04.240Z,1009.7
2016-11-08T09:50:05.002Z,1009.72
2016-11-08T09:55:04.541Z,1009.73
2016-11-08T10:00:05.123Z,1009.84
2016-11-08T10:05:04.575Z,1009.83
2016-11-08T10:10:04.808Z,1009.88
2016-11-08T10:15:05.194Z,1009.87
2016-11-08T10:20:04.553Z,1009.88
2016-11-08T10:25:04.893Z,1009.77
2016-11-08T10:30:04.483Z,1009.72
2016-11-08T10:35:04.278Z,1009.78
2016-11-08T10:40:05.056Z,1009.76
2016-11-08T10:45:04.848Z,1009.68
2016-11-08T10:50:05.012Z,1009.61
2016-11-08T10:55:04.156Z,1009.63
2016-11-08T11:00:04.497Z,1009.67
2016-11-08T11:05:04.965Z,1009.58
2016-11-08T11:10:04.288Z,1009.48
2016-11-08T11:15:05.212Z,1009.53
2016-11-08T11:20:04.767Z,1009.52
2016-11-08T11:25:04.736Z,1009.45
2016-11-08T11:30:04.135Z,1009.3
2016-11-08T11:35:04.355Z,1009.3
2016-11-08T11:40:04.305Z,1009.25
2016-11-08T11:45:04.836Z,1009.3
2016-11-08T11:50:04.771Z,1009.35
2016-11-08T11:55:04.609Z,1009.33
2016-11-08T12:00:05.009Z,1009.34
2016-11-08T12:05:04.604Z,1009.37
2016-11-08T12:10:04.512Z,1009.37
2016-11-08T12:15:04.954Z,1009.33
2016-11-08T12:20:05.312Z,1009.27
2016-11-08T12:25:04.689Z,1009.3
2016-11-08T12:30:04.439Z,1009.3
2016-11-08T12:35:04.112Z,1009.3
2016-11-08T12:40:04.648Z,1009.29
2016-11-08T12:45:04.475Z,1009.28
2016-11-08T12:50:04.706Z,1009.37
2016-11-08T12:55:05.177Z,1009.33
2016-11-08T13:00:04.672Z,1009.25
2016-11-08T13:05:04.302Z,1009.32
2016-11-08T13:10:04.743Z,1009.25
2016-11-08T13:15:05.190Z,1009.28
2016-11-08T13:20:04.556Z,1009.13
2016-11-08T13:25:05.053Z,1009.16
2016-11-08T13:30:04.798Z,1009.15
2016-11-08T13:35:05.088Z,1009.08
2016-11-08T13:40:04.082Z,1009.11
2016-11-08T13:45:04.740Z,1009.12
2016-11-08T13:50:04.809Z,1009.13
2016-11-08T13:55:04.684Z,1009.24
2016-11-08T14:00:04.777Z,1009.2
2016-11-08T14:05:05.094Z,1009.19
2016-11-08T14:10:05.209Z,1009.2
2016-11-08T14:15:05.126Z,1009.26
2016-11-08T14:20:05.262Z,1009.29
2016-11-08T14:25:04.435Z,1009.35
2016-11-08T14:30:05.091Z,1009.29
2016-11-08T14:35:04.581Z,1009.32
2016-11-08T14:40:05.162Z,1009.17
2016-11-08T14:45:04.793Z,1009.25
2016-11-08T14:50:04.823Z,1009.2
2016-11-08T14:55:05.214Z,1009.28
2016-11-08T15:00:04.670Z,1009.31
2016-11-08T15:05:05.046Z,1009.38
2016-11-08T15:10:04.875Z,1009.42
2016-11-08T15:15:04.972Z,1009.34
2016-11-08T15:20:05.174Z,1009.31
2016-11-08T15:25:05.205Z,1009.24
2016-11-08T15:30:05.207Z,1009.2
2016-11-08T15:35:04.321Z,1009.22
2016-11-08T15:40:04.822Z,1009.18
2016-11-08T15:45:05.025Z,1009.26
2016-11-08T15:50:04.919Z,1009.21
2016-11-08T15:55:05.024Z,1009.29
2016-11-08T16:00:05.092Z,1009.21
2016-11-08T16:05:04.610Z,1009.15
2016-11-08T16:10:04.772Z,1009.21
2016-11-08T16:15:05.067Z,1009.17
2016-11-08T16:20:04.120Z,1009.16
2016-11-08T16:25:04.869Z,1009.15
2016-11-08T16:30:05.142Z,1009.28
2016-11-08T16:35:04.338Z,1009.17
2016-11-08T16:40:05.089Z,1009.13
2016-11-08T16:45:04.647Z,1009.03
2016-11-08T16:50:04.871Z,1009.02
2016-11-08T16:55:04.557Z,1008.91
2016-11-08T17:00:04.927Z,1008.91
2016-11-08T17:05:04.440Z,1008.83
2016-11-08T17:10:04.287Z,1008.9
2016-11-08T17:15:05.089Z,1008.89
2016-11-08T17:20:04.937Z,1008.92
2016-11-08T17:25:04.917Z,1008.91
2016-11-08T17:30:04.496Z,1008.97
2016-11-08T17:35:04.699Z,1008.98
2016-11-08T17:40:04.807Z,1009.02
2016-11-08T17:45:04.329Z,1008.92
2016-11-08T17:50:04.338Z,1008.98
2016-11-08T17:55:04.887Z,1009
2016-11-08T18:00:04.859Z,1008.97
2016-11-08T18:05:04.579Z,1008.99
2016-11-08T18:10:04.211Z,1008.98
2016-11-08T18:15:04.395Z,1008.92
2016-11-08T18:20:04.361Z,1008.98
2016-11-08T18:25:04.763Z,1008.84
2016-11-08T18:30:05.155Z,1008.81
2016-11-08T18:35:05.187Z,1008.74
2016-11-08T18:40:04.742Z,1008.74
2016-11-08T18:45:04.731Z,1008.57
2016-11-08T18:50:04.356Z,1008.56
2016-11-08T18:55:04.861Z,1008.6
2016-11-08T19:00:05.169Z,1008.53
2016-11-08T19:05:04.415Z,1008.56
2016-11-08T19:10:05.098Z,1008.62
2016-11-08T19:15:05.217Z,1008.58
2016-11-08T19:20:04.417Z,1008.5
2016-11-08T19:25:04.309Z,1008.42
2016-11-08T19:30:05.028Z,1008.41
2016-11-08T19:35:05.157Z,1008.29
2016-11-08T19:40:04.221Z,1008.33
2016-11-08T19:45:04.380Z,1008.31
2016-11-08T19:50:04.610Z,1008.32
2016-11-08T19:55:04.987Z,1008.22
2016-11-08T20:00:04.852Z,1008.2
2016-11-08T20:05:04.331Z,1008.11
2016-11-08T20:10:04.564Z,1008.04
2016-11-08T20:15:04.517Z,1008.03
2016-11-08T20:20:04.849Z,1008.04
2016-11-08T20:25:05.102Z,1007.94
2016-11-08T20:30:04.639Z,1007.87
2016-11-08T20:35:04.984Z,1007.84
2016-11-08T20:40:04.837Z,1007.85
2016-11-08T20:45:05.002Z,1007.92
2016-11-08T20:50:04.939Z,1007.88
2016-11-08T20:55:04.548Z,1007.71
2016-11-08T21:00:04.693Z,1007.68
2016-11-08T21:05:04.611Z,1007.66
2016-11-08T21:10:04.615Z,1007.55
2016-11-08T21:15:04.751Z,1007.49
2016-11-08T21:20:04.698Z,1007.45
2016-11-08T21:25:04.938Z,1007.43
2016-11-08T21:30:05.044Z,1007.38
2016-11-08T21:35:05.088Z,1007.35
2016-11-08T21:40:04.410Z,1007.22
2016-11-08T21:45:04.793Z,1007.21
2016-11-08T21:50:04.754Z,1007.15
2016-11-08T21:55:04.461Z,1007.08
2016-11-08T22:00:04.826Z,1007.07
2016-11-08T22:05:04.638Z,1007.02
2016-11-08T22:10:04.161Z,1007.03
2016-11-08T22:15:04.170Z,1006.98
2016-11-08T22:20:04.445Z,1006.98
2016-11-08T22:25:04.323Z,1006.94
2016-11-08T22:30:04.646Z,1006.85
2016-11-08T22:35:04.730Z,1006.86
2016-11-08T22:40:05.181Z,1006.94
2016-11-08T22:45:04.617Z,1006.95
2016-11-08T22:50:04.487Z,1006.93
2016-11-08T22:55:04.381Z,1006.87
2016-11-08T23:00:04.296Z,1006.94
2016-11-08T23:05:04.724Z,1006.97
2016-11-08T23:10:04.921Z,1006.89
2016-11-08T23:15:05.133Z,1006.87
2016-11-08T23:20:04.311Z,1006.98
2016-11-08T23:25:04.149Z,1006.9
2016-11-08T23:30:05.041Z,1006.86
2016-11-08T23:35:05.216Z,1006.82
2016-11-08T23:40:04.359Z,1006.8
2016-11-08T23:45:04.488Z,1006.75
2016-11-08T23:50:04.358Z,1006.71
2016-11-08T23:55:05.212Z,1006.7
